x

Nantucket 54nm Southeast Of Nantucket (44008) Wave Buoy

3:50am - Wed 28th Jan 2015 All times are EST. -5 hours from GMT.

  • Sig Wave height 13.1ft
  • Swell Direction
  • Peak Period 12s
  • Average Period 8s
  • Wind
    25mph, 29mph gusts
  • Sea Temp 48°f
  • Air Temp 27°f
  • Sea Pressure 1004.5mb
  • Nantucket 54nm Southeast Of Nantucket
  • Nantucket 54nm Southeast Of Nantucket

More Historic Weather Station data

Upgrade to MSW Pro to gain access to the past 30 days of data for over 8000 Wavebouys and Weather Stations around the globe.

Join Pro

Comparision Forecast

View Surf forecast
   
Wed 01/28 3:50am 13ft 12s 8s 25 29 mph 1004.5mb 48f 27f
2:50am 14ft 13s 8s 22 29 mph 1003.7mb 48f 28f
1:50am 15ft 14s 8s 22 29 mph 1003.1mb 48f 27f
12:50am 15ft 14s 8s 25 31 mph 1001.8mb 48f 27f
Tue 01/27 11:50pm 15ft 14s 8s 25 31 mph 1000.9mb 48f 28f
10:50pm 16.5ft 8s 8s 27 36 mph 1000.1mb 48f 29f
9:50pm 17.5ft 9s 8s 31 40 mph 998.7mb 48f 29f
8:50pm 18.5ft 13s 8s 31 40 mph 997.7mb 47f 29f
7:50pm 18.5ft 12s 8s 36 43 mph 996.4mb 47f 29f
6:50pm 18.5ft 14s 8s 36 45 mph 995.1mb 48f 29f
5:50pm 21.5ft 9s 9s 38 45 mph 993.5mb 48f 29f
4:50pm 20.5ft 9s 8s 36 47 mph 991.8mb 49f 31f
3:50pm 23ft 9s 9s 43 54 mph 989.2mb 49f 33f
2:50pm 21.5ft 13s 9s 40 56 mph 987.1mb 49f 34f
1:50pm 19.5ft 12s 9s 38 49 mph 985.1mb 49f 36f
12:50pm 19ft 11s 8s 43 51 mph 983.2mb 49f 37f
11:50am 19ft 11s 8s 43 58 mph 981.5mb 48f 38f
10:50am 22ft 12s 9s 43 51 mph 979.4mb 48f 39f
9:50am 23.5ft 11s 9s 40 51 mph 978.1mb 48f 43f
8:50am 23.5ft 11s 9s 38 47 mph 978mb 48f 44f
7:50am 22.5ft 11s 8s 36 45 mph 978.4mb 50f 44f
6:50am 21.5ft 11s 8s 36 45 mph 977.5mb 50f 47f
5:50am 27ft 11s 9s 29 36 mph 978.9mb 51f 47f
4:50am 25.5ft 12s 9s 38 54 mph 979.4mb 51f 45f
3:50am 28ft 11s 9s 45 56 mph 979.8mb 51f 44f
2:50am 28ft 11s 10s 51 67 mph 980.9mb 51f 43f
1:50am 26ft 11s 9s 51 63 mph 984mb 49f 43f
12:50am 25ft 10s 9s 51 63 mph 985.8mb 48f 43f
Mon 01/26 11:50pm 20.5ft 10s 8s 51 60 mph 990.5mb 48f 42f
10:50pm 18.5ft 9s 8s 47 60 mph 993mb 46f 42f
9:50pm 17.5ft 9s 7s 49 58 mph 994.4mb 46f 42f
8:50pm 15ft 8s 7s 47 58 mph 997.8mb 46f 41f
7:50pm 12.5ft 8s 6s 43 51 mph 1001.5mb 46f 41f
6:50pm 12.5ft 7s 6s 43 49 mph 1004mb 47f 41f
5:50pm 10.5ft 7s 6s 36 45 mph 1007mb 47f 40f
4:50pm 9ft 7s 6s 34 38 mph 1008.3mb 48f 40f
3:50pm 8ft 6s 6s 31 38 mph 1009.4mb 47f 39f
2:50pm 7ft 6s 5s 31 38 mph 1010mb 47f 39f
1:50pm 6.5ft 6s 5s 27 34 mph 1011.8mb 46f 38f
12:50pm 6ft 11s 5s 27 34 mph 1012.5mb 46f 39f
11:50am 6ft 11s 5s 27 31 mph 1013.4mb 45f 38f
10:50am 6ft 11s 5s 25 29 mph 1015.3mb 44f 38f
9:50am 6ft 11s 6s 22 25 mph 1016.1mb 44f 38f
8:50am 6ft 11s 6s 22 25 mph 1015.3mb 45f 38f
7:50am 7ft 11s 7s 18 20 mph 1016.3mb 45f 37f
6:50am 6.5ft 11s 6s 16 20 mph 1016.8mb 46f 37f
5:50am 7ft 11s 6s 16 20 mph 1016.1mb 47f 36f
4:50am 7ft 10s 6s 16 20 mph 1015.9mb 48f 35f
3:50am 7ft 11s 6s 13 18 mph 1016.1mb 47f 35f
2:50am 7.5ft 8s 7s 16 20 mph 1015.8mb 46f 36f
1:50am 8ft 11s 7s 13 16 mph 1015.7mb 46f 37f
12:50am 8ft 11s 7s 13 18 mph 1015.4mb 45f 36f
Sun 01/25 11:50pm 9ft 11s 7s 16 18 mph 1014.8mb 45f 36f
10:50pm 9.5ft 11s 7s 18 22 mph 1013.8mb 44f 37f
9:50pm 10ft 11s 7s 22 27 mph 1012.9mb 44f 37f
8:50pm 10.5ft 8s 7s 22 27 mph 1011.7mb 44f 38f
7:50pm 12ft 12s 7s 27 31 mph 1010.7mb 44f 39f
6:50pm 12ft 9s 7s 22 27 mph 1010.1mb 45f 40f
5:50pm 12.5ft 12s 7s 27 31 mph 1008.5mb 45f 41f
4:50pm 11.5ft 12s 7s 27 34 mph 1006.8mb 45f 42f
3:50pm 12ft 12s 7s 27 36 mph 1005.7mb 46f 42f
2:50pm 12ft 12s 7s 27 31 mph 1005mb 46f 42f
1:50pm 11ft 11s 7s 27 34 mph 1003.5mb 47f 42f
12:50pm 13ft 11s 8s 25 31 mph 1003.2mb 47f 42f
11:50am 13ft 12s 8s 27 34 mph 1003.6mb 46f 42f
10:50am 14ft 12s 8s 25 31 mph 1003.5mb 46f 42f
9:50am 15ft 13s 8s 27 31 mph 1003.1mb 45f 41f
8:50am 15ft 12s 8s 27 31 mph 1002.4mb 45f 41f
7:50am 15.5ft 12s 9s 25 31 mph 1001.2mb 44f 41f
6:50am 15ft 11s 8s 27 31 mph 999.9mb 44f 40f
5:50am 15.5ft 13s 8s 27 34 mph 999.1mb 45f 40f
4:50am 16.5ft 13s 9s 29 36 mph 997.8mb 45f 41f
3:50am 15.5ft 13s 9s 25 29 mph 996.8mb 46f 42f
2:50am 15.5ft 13s 8s 27 31 mph 995.5mb 47f 42f
1:50am 16ft 13s 8s 27 34 mph 994.5mb 47f 41f
12:50am 15.5ft 12s 8s 29 36 mph 993.1mb 47f 41f
Sat 01/24 11:50pm 18ft 14s 9s 34 40 mph 991.8mb 47f 41f
10:50pm 18ft 11s 9s 31 38 mph 989.4mb 48f 40f
9:50pm 18.5ft 12s 8s 34 43 mph 986.9mb 47f 39f
8:50pm 16ft 13s 9s 38 51 mph 985mb 46f 40f
7:50pm 17ft 11s 9s 29 43 mph 982.3mb 44f 43f
6:50pm 19.5ft 11s 9s 18 25 mph 981.3mb 44f 44f
5:50pm 18ft 12s 9s 18 25 mph 980.7mb 45f 46f
4:50pm 18ft 11s 9s 13 18 mph 979.1mb 47f 52f
3:50pm 15.5ft 11s 8s 13 18 mph 981.6mb 47f 55f
2:50pm 14ft 9s 7s 25 31 mph 983.4mb 49f 57f
1:50pm 11ft 8s 6s 38 49 mph 983.2mb 50f 59f
12:50pm 4.5ft 5s 5s 31 40 mph 986.1mb 50f 56f
11:50am 4.5ft 10s 5s 25 29 mph 991.2mb 49f 54f
10:50am 4ft 4s 5s 22 25 mph 995.6mb 49f 51f
9:50am 3.5ft 6s 4s 25 29 mph 999.6mb 49f 47f